createdAt,value
2019-06-20T02:25:03.245Z,100
2019-06-20T02:29:59.612Z,100
2019-06-20T05:15:02.943Z,100
2019-06-20T05:19:59.528Z,100
2019-06-20T05:24:59.584Z,100
2019-06-20T05:29:59.528Z,100
2019-06-20T05:35:02.810Z,100
2019-06-20T05:39:59.574Z,100
2019-06-20T05:44:59.416Z,100
2019-06-20T05:49:59.617Z,100
2019-06-20T05:54:59.598Z,100
2019-06-20T05:59:59.428Z,100
2019-06-20T06:04:59.457Z,100
2019-06-20T06:10:03.697Z,100
2019-06-20T06:15:01.005Z,100
2019-06-20T06:19:59.286Z,100
2019-06-20T06:24:59.343Z,100
2019-06-20T06:29:59.479Z,100
2019-06-20T06:34:59.518Z,100
2019-06-20T06:39:59.396Z,100
2019-06-20T06:44:59.577Z,100
2019-06-20T06:49:59.328Z,100
2019-06-20T06:54:59.556Z,100
2019-06-20T06:59:59.452Z,100
2019-06-20T07:04:59.646Z,100
2019-06-20T07:09:59.253Z,100
2019-06-20T07:14:59.156Z,100
2019-06-20T07:19:59.235Z,100
2019-06-20T07:24:59.408Z,100
2019-06-20T07:29:59.174Z,100
2019-06-20T07:34:59.458Z,100
2019-06-20T07:39:59.237Z,100
2019-06-20T07:44:59.294Z,100
2019-06-20T07:49:59.398Z,100
2019-06-20T07:54:59.362Z,100
2019-06-20T07:59:59.169Z,96.9
2019-06-20T08:04:59.168Z,97.4
2019-06-20T08:09:59.141Z,97.9
2019-06-20T08:15:13.992Z,98.7
2019-06-20T08:19:59.192Z,100
2019-06-20T08:24:59.173Z,98
2019-06-20T08:29:59.342Z,98.8
2019-06-20T08:35:00.537Z,100
2019-06-20T08:40:00.015Z,100
2019-06-20T08:44:59.480Z,99.3
2019-06-20T08:49:59.749Z,98.6
2019-06-20T08:54:59.609Z,97.9
2019-06-20T09:00:00.591Z,97.6
2019-06-20T09:05:00.296Z,97.2
2019-06-20T09:09:59.845Z,98.5
2019-06-20T09:14:59.547Z,100
2019-06-20T09:20:00.242Z,99.8
2019-06-20T09:25:00.732Z,100
2019-06-20T09:30:00.505Z,100
2019-06-20T09:34:59.508Z,98.7
2019-06-20T09:39:59.321Z,100
2019-06-20T09:44:59.640Z,98.6
2019-06-20T09:49:59.469Z,94.9
2019-06-20T09:54:59.419Z,92.7
2019-06-20T10:00:07.673Z,91.8
2019-06-20T10:04:59.195Z,90.8
2019-06-20T10:09:59.386Z,90.9
2019-06-20T10:14:59.160Z,93.3
2019-06-20T10:19:59.242Z,91.6
2019-06-20T10:24:59.507Z,92.7
2019-06-20T10:30:13.489Z,92.4
2019-06-20T10:34:59.676Z,92.3
2019-06-20T10:39:59.447Z,94.2
2019-06-20T10:44:59.425Z,93.7
2019-06-20T10:49:59.262Z,92
2019-06-20T10:54:59.401Z,92.4
2019-06-20T10:59:59.361Z,95.8
2019-06-20T11:04:59.437Z,91.9
2019-06-20T11:09:59.723Z,90.5
2019-06-20T11:14:59.297Z,92.5
2019-06-20T11:19:59.303Z,89
2019-06-20T11:24:59.337Z,88.7
2019-06-20T11:29:59.300Z,86.6
2019-06-20T11:34:59.463Z,82.8
2019-06-20T11:39:59.342Z,82.5
2019-06-20T11:44:59.432Z,79.6
2019-06-20T11:49:59.190Z,79.4
2019-06-20T11:54:59.095Z,83.9
2019-06-20T11:59:59.298Z,81.7
2019-06-20T12:04:59.440Z,79.3
2019-06-20T12:09:59.965Z,82.7
2019-06-20T12:14:59.235Z,85
2019-06-20T12:19:59.525Z,77.3
2019-06-20T12:24:59.295Z,77.2
2019-06-20T12:29:59.987Z,79.5
2019-06-20T12:34:59.071Z,76.2
2019-06-20T12:39:59.257Z,76.1
2019-06-20T12:44:59.782Z,76.5
2019-06-20T12:49:59.241Z,76.2
2019-06-20T12:54:59.247Z,78
2019-06-20T12:59:59.558Z,75.2
2019-06-20T13:04:58.869Z,75.6
2019-06-20T13:09:59.048Z,76.9
2019-06-20T13:14:58.827Z,71
2019-06-20T13:19:59.117Z,69.4
2019-06-20T13:24:59.064Z,69.2
2019-06-20T13:29:59.239Z,68.6
2019-06-20T13:34:59.180Z,68.9
2019-06-20T13:39:59.008Z,66.8
2019-06-20T13:44:58.965Z,70.2
2019-06-20T13:49:59.019Z,68.2
2019-06-20T13:54:59.083Z,63.1
2019-06-20T13:59:58.984Z,65.1
2019-06-20T22:45:22.235Z,67.1
2019-06-20T23:15:06.506Z,68.7
2019-06-20T23:20:01.754Z,69.3
2019-06-20T23:25:39.227Z,69.6
2019-06-20T23:30:00.927Z,70.2
2019-06-20T23:35:00.655Z,70.6
2019-06-20T23:40:00.968Z,71
2019-06-20T23:45:00.844Z,70.8
2019-06-20T23:50:00.847Z,70.9
2019-06-20T23:55:00.850Z,71.2
